sensor_id;sensor_type;location;lat;lon;timestamp;temperature;humidity
46331;DHT22;32049;52.346;4.870;2022-09-09T00:00:35;17.70;99.90
46331;DHT22;32049;52.346;4.870;2022-09-09T00:03:27;17.50;99.90
46331;DHT22;32049;52.346;4.870;2022-09-09T00:06:42;17.70;99.90
46331;DHT22;32049;52.346;4.870;2022-09-09T00:09:56;17.60;99.90
46331;DHT22;32049;52.346;4.870;2022-09-09T00:19:22;17.70;99.90
46331;DHT22;32049;52.346;4.870;2022-09-09T00:22:15;17.60;99.90
46331;DHT22;32049;52.346;4.870;2022-09-09T00:25:11;17.50;99.90
46331;DHT22;32049;52.346;4.870;2022-09-09T00:27:58;17.30;99.90
46331;DHT22;32049;52.346;4.870;2022-09-09T00:30:46;17.20;99.90
46331;DHT22;32049;52.346;4.870;2022-09-09T00:44:31;17.30;99.90
46331;DHT22;32049;52.346;4.870;2022-09-09T00:47:50;17.50;99.90
46331;DHT22;32049;52.346;4.870;2022-09-09T00:57:32;17.50;99.90
46331;DHT22;32049;52.346;4.870;2022-09-09T01:01:14;17.60;99.90
46331;DHT22;32049;52.346;4.870;2022-09-09T01:07:50;17.60;99.90
46331;DHT22;32049;52.346;4.870;2022-09-09T01:16:34;17.60;99.90
46331;DHT22;32049;52.346;4.870;2022-09-09T01:32:45;17.20;99.90
46331;DHT22;32049;52.346;4.870;2022-09-09T01:39:02;17.40;99.90
46331;DHT22;32049;52.346;4.870;2022-09-09T01:41:53;17.40;99.90
46331;DHT22;32049;52.346;4.870;2022-09-09T01:44:43;17.40;99.90
46331;DHT22;32049;52.346;4.870;2022-09-09T01:47:53;17.50;99.90
46331;DHT22;32049;52.346;4.870;2022-09-09T01:51:03;17.30;99.90
46331;DHT22;32049;52.346;4.870;2022-09-09T01:53:54;17.40;99.90
46331;DHT22;32049;52.346;4.870;2022-09-09T01:57:15;17.10;99.90
46331;DHT22;32049;52.346;4.870;2022-09-09T02:00:30;17.10;99.90
46331;DHT22;32049;52.346;4.870;2022-09-09T02:03:32;17.50;99.90
46331;DHT22;32049;52.346;4.870;2022-09-09T02:06:32;17.40;99.90
46331;DHT22;32049;52.346;4.870;2022-09-09T02:09:23;17.30;99.90
46331;DHT22;32049;52.346;4.870;2022-09-09T02:12:21;17.30;99.90
46331;DHT22;32049;52.346;4.870;2022-09-09T02:15:23;17.20;99.90
46331;DHT22;32049;52.346;4.870;2022-09-09T02:18:35;17.20;99.90
46331;DHT22;32049;52.346;4.870;2022-09-09T02:21:32;17.10;99.90
46331;DHT22;32049;52.346;4.870;2022-09-09T02:24:33;17.20;99.90
46331;DHT22;32049;52.346;4.870;2022-09-09T02:27:49;17.30;99.90
46331;DHT22;32049;52.346;4.870;2022-09-09T02:31:25;17.10;99.90
46331;DHT22;32049;52.346;4.870;2022-09-09T02:35:19;17.10;99.90
46331;DHT22;32049;52.346;4.870;2022-09-09T02:38:41;17.10;99.90
46331;DHT22;32049;52.346;4.870;2022-09-09T05:00:25;16.80;99.90
46331;DHT22;32049;52.346;4.870;2022-09-09T05:03:22;17.30;99.90
46331;DHT22;32049;52.346;4.870;2022-09-09T05:06:12;16.60;99.90
46331;DHT22;32049;52.346;4.870;2022-09-09T05:09:08;16.90;99.90
46331;DHT22;32049;52.346;4.870;2022-09-09T05:11:56;17.00;99.90
46331;DHT22;32049;52.346;4.870;2022-09-09T05:14:46;16.80;99.90
46331;DHT22;32049;52.346;4.870;2022-09-09T05:17:43;16.60;99.90
46331;DHT22;32049;52.346;4.870;2022-09-09T05:20:41;16.60;99.90
46331;DHT22;32049;52.346;4.870;2022-09-09T05:23:37;17.20;99.90
46331;DHT22;32049;52.346;4.870;2022-09-09T05:26:25;17.20;99.90
46331;DHT22;32049;52.346;4.870;2022-09-09T05:29:13;16.80;99.90
46331;DHT22;32049;52.346;4.870;2022-09-09T05:36:28;16.50;99.90
46331;DHT22;32049;52.346;4.870;2022-09-09T05:39:16;16.50;99.90
46331;DHT22;32049;52.346;4.870;2022-09-09T05:42:05;16.30;99.90
46331;DHT22;32049;52.346;4.870;2022-09-09T05:44:55;16.50;99.90
46331;DHT22;32049;52.346;4.870;2022-09-09T05:47:50;16.60;99.90
46331;DHT22;32049;52.346;4.870;2022-09-09T05:50:39;16.70;99.90
46331;DHT22;32049;52.346;4.870;2022-09-09T05:53:28;16.70;99.90
46331;DHT22;32049;52.346;4.870;2022-09-09T05:56:21;16.50;99.90
46331;DHT22;32049;52.346;4.870;2022-09-09T05:59:11;16.50;99.90
46331;DHT22;32049;52.346;4.870;2022-09-09T06:01:59;16.60;99.90
46331;DHT22;32049;52.346;4.870;2022-09-09T06:04:49;16.80;99.90
46331;DHT22;32049;52.346;4.870;2022-09-09T06:07:39;16.60;99.90
46331;DHT22;32049;52.346;4.870;2022-09-09T06:10:33;17.00;99.90
46331;DHT22;32049;52.346;4.870;2022-09-09T06:13:27;17.00;99.90
46331;DHT22;32049;52.346;4.870;2022-09-09T06:16:20;16.70;99.90
46331;DHT22;32049;52.346;4.870;2022-09-09T06:19:10;16.70;99.90
46331;DHT22;32049;52.346;4.870;2022-09-09T06:22:09;17.00;99.90
46331;DHT22;32049;52.346;4.870;2022-09-09T06:25:02;16.90;99.90
46331;DHT22;32049;52.346;4.870;2022-09-09T06:27:53;16.70;99.90
46331;DHT22;32049;52.346;4.870;2022-09-09T06:30:44;17.10;99.90
46331;DHT22;32049;52.346;4.870;2022-09-09T06:33:35;17.00;99.90
46331;DHT22;32049;52.346;4.870;2022-09-09T06:36:31;17.00;99.90
46331;DHT22;32049;52.346;4.870;2022-09-09T06:39:22;17.20;99.90
46331;DHT22;32049;52.346;4.870;2022-09-09T06:42:13;17.50;99.90
46331;DHT22;32049;52.346;4.870;2022-09-09T06:45:32;17.50;99.90
46331;DHT22;32049;52.346;4.870;2022-09-09T06:48:34;17.80;99.90
46331;DHT22;32049;52.346;4.870;2022-09-09T06:51:39;17.50;99.90
46331;DHT22;32049;52.346;4.870;2022-09-09T06:54:57;17.50;99.90
46331;DHT22;32049;52.346;4.870;2022-09-09T06:57:54;17.50;99.90
46331;DHT22;32049;52.346;4.870;2022-09-09T07:00:50;17.50;99.90
46331;DHT22;32049;52.346;4.870;2022-09-09T07:04:12;17.40;99.90
46331;DHT22;32049;52.346;4.870;2022-09-09T07:07:12;17.40;99.90
46331;DHT22;32049;52.346;4.870;2022-09-09T07:10:05;17.80;99.90
46331;DHT22;32049;52.346;4.870;2022-09-09T07:13:34;17.40;99.90
46331;DHT22;32049;52.346;4.870;2022-09-09T07:17:31;17.50;99.90
46331;DHT22;32049;52.346;4.870;2022-09-09T07:20:33;17.60;99.90
46331;DHT22;32049;52.346;4.870;2022-09-09T07:23:27;17.40;99.90
46331;DHT22;32049;52.346;4.870;2022-09-09T07:26:38;17.70;99.90
46331;DHT22;32049;52.346;4.870;2022-09-09T07:29:42;17.50;99.90
46331;DHT22;32049;52.346;4.870;2022-09-09T07:32:40;17.20;99.90
46331;DHT22;32049;52.346;4.870;2022-09-09T07:35:34;17.60;99.90
46331;DHT22;32049;52.346;4.870;2022-09-09T07:39:13;17.80;99.90
46331;DHT22;32049;52.346;4.870;2022-09-09T07:42:24;17.70;99.90
46331;DHT22;32049;52.346;4.870;2022-09-09T07:45:41;17.50;99.90
46331;DHT22;32049;52.346;4.870;2022-09-09T07:48:42;17.20;99.90
46331;DHT22;32049;52.346;4.870;2022-09-09T07:51:37;17.40;99.90
46331;DHT22;32049;52.346;4.870;2022-09-09T07:54:35;17.20;99.90
46331;DHT22;32049;52.346;4.870;2022-09-09T07:57:33;17.30;99.90
46331;DHT22;32049;52.346;4.870;2022-09-09T08:01:01;17.40;99.90
46331;DHT22;32049;52.346;4.870;2022-09-09T08:04:02;17.20;99.90
46331;DHT22;32049;52.346;4.870;2022-09-09T08:06:56;17.20;99.90
46331;DHT22;32049;52.346;4.870;2022-09-09T08:09:50;17.50;99.90
46331;DHT22;32049;52.346;4.870;2022-09-09T08:13:04;17.40;99.90
46331;DHT22;32049;52.346;4.870;2022-09-09T08:20:01;17.30;99.90
46331;DHT22;32049;52.346;4.870;2022-09-09T08:23:34;17.80;99.90
46331;DHT22;32049;52.346;4.870;2022-09-09T08:32:04;17.80;99.90
46331;DHT22;32049;52.346;4.870;2022-09-09T08:35:18;18.20;99.90
46331;DHT22;32049;52.346;4.870;2022-09-09T08:38:35;17.90;99.90
46331;DHT22;32049;52.346;4.870;2022-09-09T08:45:28;17.80;99.90
46331;DHT22;32049;52.346;4.870;2022-09-09T08:48:50;17.60;99.90
46331;DHT22;32049;52.346;4.870;2022-09-09T08:51:43;17.90;99.90
46331;DHT22;32049;52.346;4.870;2022-09-09T08:58:34;17.80;99.90
46331;DHT22;32049;52.346;4.870;2022-09-09T09:04:52;18.00;99.90
46331;DHT22;32049;52.346;4.870;2022-09-09T09:08:26;17.80;99.90
46331;DHT22;32049;52.346;4.870;2022-09-09T09:11:21;17.70;99.90
46331;DHT22;32049;52.346;4.870;2022-09-09T09:14:23;17.90;99.90
46331;DHT22;32049;52.346;4.870;2022-09-09T09:17:38;18.00;99.90
46331;DHT22;32049;52.346;4.870;2022-09-09T09:21:25;17.90;99.90
46331;DHT22;32049;52.346;4.870;2022-09-09T09:24:56;18.00;99.90
46331;DHT22;32049;52.346;4.870;2022-09-09T09:28:21;18.10;99.90
46331;DHT22;32049;52.346;4.870;2022-09-09T09:31:12;18.00;99.90
46331;DHT22;32049;52.346;4.870;2022-09-09T09:34:24;17.70;99.90
46331;DHT22;32049;52.346;4.870;2022-09-09T09:37:34;17.70;99.90
46331;DHT22;32049;52.346;4.870;2022-09-09T09:40:54;17.70;99.90
46331;DHT22;32049;52.346;4.870;2022-09-09T09:43:53;17.80;99.90
46331;DHT22;32049;52.346;4.870;2022-09-09T09:47:21;17.60;99.90
46331;DHT22;32049;52.346;4.870;2022-09-09T09:50:23;17.80;99.90
46331;DHT22;32049;52.346;4.870;2022-09-09T09:53:27;17.80;99.90
46331;DHT22;32049;52.346;4.870;2022-09-09T09:56:26;17.80;99.90
46331;DHT22;32049;52.346;4.870;2022-09-09T09:59:33;17.80;99.90
46331;DHT22;32049;52.346;4.870;2022-09-09T10:02:39;17.60;99.90
46331;DHT22;32049;52.346;4.870;2022-09-09T10:05:47;17.70;99.90
46331;DHT22;32049;52.346;4.870;2022-09-09T10:08:45;17.80;99.90
46331;DHT22;32049;52.346;4.870;2022-09-09T10:11:57;18.00;99.90
46331;DHT22;32049;52.346;4.870;2022-09-09T10:21:59;19.00;99.90
46331;DHT22;32049;52.346;4.870;2022-09-09T10:25:19;18.70;99.90
46331;DHT22;32049;52.346;4.870;2022-09-09T10:28:39;18.50;99.90
46331;DHT22;32049;52.346;4.870;2022-09-09T10:32:20;18.40;99.90
46331;DHT22;32049;52.346;4.870;2022-09-09T10:38:54;18.10;99.90
46331;DHT22;32049;52.346;4.870;2022-09-09T10:42:16;18.30;99.90
46331;DHT22;32049;52.346;4.870;2022-09-09T10:45:47;18.30;99.90
46331;DHT22;32049;52.346;4.870;2022-09-09T10:53:03;19.00;99.90
46331;DHT22;32049;52.346;4.870;2022-09-09T10:56:12;19.60;99.90
46331;DHT22;32049;52.346;4.870;2022-09-09T10:59:17;19.20;99.90
46331;DHT22;32049;52.346;4.870;2022-09-09T11:02:40;19.20;99.90
46331;DHT22;32049;52.346;4.870;2022-09-09T11:05:48;18.90;99.90
46331;DHT22;32049;52.346;4.870;2022-09-09T11:09:14;18.60;99.90
46331;DHT22;32049;52.346;4.870;2022-09-09T11:21:15;18.50;99.90
46331;DHT22;32049;52.346;4.870;2022-09-09T11:27:23;18.50;99.90
46331;DHT22;32049;52.346;4.870;2022-09-09T11:30:29;18.40;99.90
46331;DHT22;32049;52.346;4.870;2022-09-09T11:34:53;18.60;99.90
46331;DHT22;32049;52.346;4.870;2022-09-09T11:40:28;18.60;99.90
46331;DHT22;32049;52.346;4.870;2022-09-09T11:43:29;18.60;99.90
46331;DHT22;32049;52.346;4.870;2022-09-09T11:46:31;18.50;99.90
46331;DHT22;32049;52.346;4.870;2022-09-09T12:04:04;18.40;99.90
46331;DHT22;32049;52.346;4.870;2022-09-09T12:06:56;18.30;99.90
46331;DHT22;32049;52.346;4.870;2022-09-09T12:09:49;18.30;99.90
46331;DHT22;32049;52.346;4.870;2022-09-09T12:12:41;18.60;99.90
46331;DHT22;32049;52.346;4.870;2022-09-09T12:15:30;18.60;99.90
46331;DHT22;32049;52.346;4.870;2022-09-09T12:21:40;18.60;99.90
46331;DHT22;32049;52.346;4.870;2022-09-09T12:25:00;18.60;99.90
46331;DHT22;32049;52.346;4.870;2022-09-09T12:28:15;18.60;99.90
46331;DHT22;32049;52.346;4.870;2022-09-09T12:31:24;18.60;99.90
46331;DHT22;32049;52.346;4.870;2022-09-09T12:37:40;18.30;99.90
46331;DHT22;32049;52.346;4.870;2022-09-09T12:40:35;18.40;99.90
46331;DHT22;32049;52.346;4.870;2022-09-09T12:44:17;18.30;99.90
46331;DHT22;32049;52.346;4.870;2022-09-09T12:47:05;18.30;99.90
46331;DHT22;32049;52.346;4.870;2022-09-09T12:49:53;18.30;99.90
46331;DHT22;32049;52.346;4.870;2022-09-09T12:52:43;18.30;99.90
46331;DHT22;32049;52.346;4.870;2022-09-09T12:55:35;18.30;99.90
46331;DHT22;32049;52.346;4.870;2022-09-09T12:58:24;18.30;99.90
46331;DHT22;32049;52.346;4.870;2022-09-09T13:04:21;18.20;99.90
46331;DHT22;32049;52.346;4.870;2022-09-09T13:07:42;18.20;99.90
46331;DHT22;32049;52.346;4.870;2022-09-09T13:10:51;18.30;99.90
46331;DHT22;32049;52.346;4.870;2022-09-09T13:13:53;18.10;99.90
46331;DHT22;32049;52.346;4.870;2022-09-09T13:16:55;18.20;99.90
46331;DHT22;32049;52.346;4.870;2022-09-09T13:19:44;18.10;99.90
46331;DHT22;32049;52.346;4.870;2022-09-09T13:22:42;18.20;99.90
46331;DHT22;32049;52.346;4.870;2022-09-09T13:25:30;18.40;99.90
46331;DHT22;32049;52.346;4.870;2022-09-09T13:28:27;18.70;99.90
46331;DHT22;32049;52.346;4.870;2022-09-09T13:31:32;18.60;99.90
46331;DHT22;32049;52.346;4.870;2022-09-09T13:34:36;18.50;99.90
46331;DHT22;32049;52.346;4.870;2022-09-09T13:37:37;18.50;99.90
46331;DHT22;32049;52.346;4.870;2022-09-09T13:40:54;18.50;99.90
46331;DHT22;32049;52.346;4.870;2022-09-09T13:43:47;18.60;99.90
46331;DHT22;32049;52.346;4.870;2022-09-09T13:47:19;18.40;99.90
46331;DHT22;32049;52.346;4.870;2022-09-09T13:50:31;18.40;99.90
46331;DHT22;32049;52.346;4.870;2022-09-09T13:53:32;18.40;99.90
46331;DHT22;32049;52.346;4.870;2022-09-09T13:56:43;18.30;99.90
46331;DHT22;32049;52.346;4.870;2022-09-09T13:59:49;18.30;99.90
46331;DHT22;32049;52.346;4.870;2022-09-09T14:06:27;18.50;99.90
46331;DHT22;32049;52.346;4.870;2022-09-09T14:09:20;18.60;99.90
46331;DHT22;32049;52.346;4.870;2022-09-09T14:13:02;18.60;99.90
46331;DHT22;32049;52.346;4.870;2022-09-09T14:16:05;18.60;99.90
46331;DHT22;32049;52.346;4.870;2022-09-09T14:18:53;19.00;99.90
46331;DHT22;32049;52.346;4.870;2022-09-09T14:21:58;19.40;99.90
46331;DHT22;32049;52.346;4.870;2022-09-09T14:24:51;19.70;99.90
46331;DHT22;32049;52.346;4.870;2022-09-09T14:27:48;19.90;99.90
46331;DHT22;32049;52.346;4.870;2022-09-09T14:31:03;19.80;99.90
46331;DHT22;32049;52.346;4.870;2022-09-09T14:34:12;19.50;99.90
46331;DHT22;32049;52.346;4.870;2022-09-09T14:36:59;19.20;99.90
46331;DHT22;32049;52.346;4.870;2022-09-09T14:39:54;19.10;99.90
46331;DHT22;32049;52.346;4.870;2022-09-09T14:43:04;18.90;99.90
46331;DHT22;32049;52.346;4.870;2022-09-09T14:46:07;18.80;99.90
46331;DHT22;32049;52.346;4.870;2022-09-09T14:49:11;18.90;99.90
46331;DHT22;32049;52.346;4.870;2022-09-09T14:52:14;18.80;99.90
46331;DHT22;32049;52.346;4.870;2022-09-09T14:55:09;18.80;99.90
46331;DHT22;32049;52.346;4.870;2022-09-09T14:57:57;18.50;99.90
46331;DHT22;32049;52.346;4.870;2022-09-09T15:00:47;18.40;99.90
46331;DHT22;32049;52.346;4.870;2022-09-09T15:04:11;18.50;99.90
46331;DHT22;32049;52.346;4.870;2022-09-09T15:07:18;18.50;99.90
46331;DHT22;32049;52.346;4.870;2022-09-09T15:10:08;18.30;99.90
46331;DHT22;32049;52.346;4.870;2022-09-09T15:12:58;18.40;99.90
46331;DHT22;32049;52.346;4.870;2022-09-09T15:15:52;18.30;99.90
46331;DHT22;32049;52.346;4.870;2022-09-09T15:18:46;18.30;99.90
46331;DHT22;32049;52.346;4.870;2022-09-09T15:22:04;17.90;99.90
46331;DHT22;32049;52.346;4.870;2022-09-09T15:25:10;17.80;99.90
46331;DHT22;32049;52.346;4.870;2022-09-09T15:36:51;17.70;99.90
46331;DHT22;32049;52.346;4.870;2022-09-09T15:39:42;17.60;99.90
46331;DHT22;32049;52.346;4.870;2022-09-09T15:42:45;17.70;99.90
46331;DHT22;32049;52.346;4.870;2022-09-09T15:45:36;17.80;99.90
46331;DHT22;32049;52.346;4.870;2022-09-09T15:48:30;17.90;99.90
46331;DHT22;32049;52.346;4.870;2022-09-09T15:51:25;17.80;99.90
46331;DHT22;32049;52.346;4.870;2022-09-09T15:54:36;17.80;99.90
46331;DHT22;32049;52.346;4.870;2022-09-09T15:57:34;17.80;99.90
46331;DHT22;32049;52.346;4.870;2022-09-09T16:00:25;17.80;99.90
46331;DHT22;32049;52.346;4.870;2022-09-09T16:03:22;17.90;99.90
46331;DHT22;32049;52.346;4.870;2022-09-09T16:06:19;17.90;99.90
46331;DHT22;32049;52.346;4.870;2022-09-09T16:09:08;17.80;99.90
46331;DHT22;32049;52.346;4.870;2022-09-09T16:12:04;17.90;99.90
46331;DHT22;32049;52.346;4.870;2022-09-09T16:14:55;17.80;99.90
46331;DHT22;32049;52.346;4.870;2022-09-09T16:17:44;17.60;99.90
46331;DHT22;32049;52.346;4.870;2022-09-09T16:20:41;17.70;99.90
46331;DHT22;32049;52.346;4.870;2022-09-09T16:23:36;17.70;99.90
46331;DHT22;32049;52.346;4.870;2022-09-09T16:26:56;17.60;99.90
46331;DHT22;32049;52.346;4.870;2022-09-09T16:29:43;17.70;99.90
46331;DHT22;32049;52.346;4.870;2022-09-09T16:32:37;17.60;99.90
46331;DHT22;32049;52.346;4.870;2022-09-09T16:35:35;17.50;99.90
46331;DHT22;32049;52.346;4.870;2022-09-09T16:38:28;17.50;99.90
46331;DHT22;32049;52.346;4.870;2022-09-09T16:41:28;17.50;99.90
46331;DHT22;32049;52.346;4.870;2022-09-09T16:44:20;17.40;99.90
46331;DHT22;32049;52.346;4.870;2022-09-09T16:47:11;17.40;99.90
46331;DHT22;32049;52.346;4.870;2022-09-09T16:50:01;17.40;99.90
46331;DHT22;32049;52.346;4.870;2022-09-09T16:56:16;17.50;99.90
46331;DHT22;32049;52.346;4.870;2022-09-09T16:59:20;17.40;99.90
46331;DHT22;32049;52.346;4.870;2022-09-09T17:02:12;17.50;99.90
46331;DHT22;32049;52.346;4.870;2022-09-09T17:05:03;17.50;99.90
46331;DHT22;32049;52.346;4.870;2022-09-09T17:07:56;17.40;99.90
46331;DHT22;32049;52.346;4.870;2022-09-09T17:10:44;17.60;99.90
46331;DHT22;32049;52.346;4.870;2022-09-09T17:13:37;17.50;99.90
46331;DHT22;32049;52.346;4.870;2022-09-09T17:16:27;17.50;99.90
46331;DHT22;32049;52.346;4.870;2022-09-09T17:19:16;17.60;99.90
46331;DHT22;32049;52.346;4.870;2022-09-09T17:22:10;17.50;99.90
46331;DHT22;32049;52.346;4.870;2022-09-09T17:25:04;17.70;99.90
46331;DHT22;32049;52.346;4.870;2022-09-09T17:34:01;17.60;99.90
46331;DHT22;32049;52.346;4.870;2022-09-09T17:46:35;17.70;99.90
46331;DHT22;32049;52.346;4.870;2022-09-09T17:54:35;17.70;99.90
46331;DHT22;32049;52.346;4.870;2022-09-09T17:58:28;17.60;99.90
46331;DHT22;32049;52.346;4.870;2022-09-09T18:02:13;17.50;99.90
46331;DHT22;32049;52.346;4.870;2022-09-09T18:06:16;17.50;99.90
46331;DHT22;32049;52.346;4.870;2022-09-09T18:10:13;17.40;99.90
46331;DHT22;32049;52.346;4.870;2022-09-09T18:14:10;17.30;99.90
46331;DHT22;32049;52.346;4.870;2022-09-09T18:17:57;17.30;99.90
46331;DHT22;32049;52.346;4.870;2022-09-09T18:25:53;17.10;99.90
46331;DHT22;32049;52.346;4.870;2022-09-09T18:29:17;17.10;99.90
46331;DHT22;32049;52.346;4.870;2022-09-09T18:57:21;17.00;99.90
46331;DHT22;32049;52.346;4.870;2022-09-09T19:00:10;17.00;99.90
46331;DHT22;32049;52.346;4.870;2022-09-09T19:02:58;17.00;99.90
46331;DHT22;32049;52.346;4.870;2022-09-09T19:05:46;17.00;99.90
46331;DHT22;32049;52.346;4.870;2022-09-09T19:08:35;16.90;99.90
46331;DHT22;32049;52.346;4.870;2022-09-09T19:29:26;16.70;99.90
46331;DHT22;32049;52.346;4.870;2022-09-09T19:32:14;16.80;99.90
46331;DHT22;32049;52.346;4.870;2022-09-09T19:35:22;16.70;99.90
46331;DHT22;32049;52.346;4.870;2022-09-09T19:38:10;16.70;99.90
46331;DHT22;32049;52.346;4.870;2022-09-09T19:47:04;16.70;99.90
46331;DHT22;32049;52.346;4.870;2022-09-09T19:49:52;16.70;99.90
46331;DHT22;32049;52.346;4.870;2022-09-09T19:52:40;16.60;99.90
46331;DHT22;32049;52.346;4.870;2022-09-09T19:55:28;16.70;99.90
46331;DHT22;32049;52.346;4.870;2022-09-09T19:58:16;16.70;99.90
46331;DHT22;32049;52.346;4.870;2022-09-09T20:01:19;16.50;99.90
46331;DHT22;32049;52.346;4.870;2022-09-09T20:04:07;16.70;99.90
46331;DHT22;32049;52.346;4.870;2022-09-09T20:10:17;16.60;99.90
46331;DHT22;32049;52.346;4.870;2022-09-09T20:13:11;16.60;99.90
46331;DHT22;32049;52.346;4.870;2022-09-09T20:16:01;16.60;99.90
46331;DHT22;32049;52.346;4.870;2022-09-09T20:18:55;16.50;99.90
46331;DHT22;32049;52.346;4.870;2022-09-09T20:21:47;16.60;99.90
46331;DHT22;32049;52.346;4.870;2022-09-09T20:24:35;16.60;99.90
46331;DHT22;32049;52.346;4.870;2022-09-09T20:27:33;16.60;99.90
46331;DHT22;32049;52.346;4.870;2022-09-09T20:30:23;16.60;99.90
46331;DHT22;32049;52.346;4.870;2022-09-09T20:33:12;16.60;99.90
46331;DHT22;32049;52.346;4.870;2022-09-09T20:38:59;16.50;99.90
46331;DHT22;32049;52.346;4.870;2022-09-09T20:42:20;16.50;99.90
46331;DHT22;32049;52.346;4.870;2022-09-09T20:45:09;16.50;99.90
46331;DHT22;32049;52.346;4.870;2022-09-09T20:48:03;16.40;99.90
46331;DHT22;32049;52.346;4.870;2022-09-09T20:50:51;16.50;99.90
46331;DHT22;32049;52.346;4.870;2022-09-09T20:53:39;16.40;99.90
46331;DHT22;32049;52.346;4.870;2022-09-09T20:56:38;16.50;99.90
46331;DHT22;32049;52.346;4.870;2022-09-09T20:59:28;16.50;99.90
46331;DHT22;32049;52.346;4.870;2022-09-09T21:02:17;16.50;99.90
46331;DHT22;32049;52.346;4.870;2022-09-09T21:05:05;16.40;99.90
46331;DHT22;32049;52.346;4.870;2022-09-09T21:07:56;16.50;99.90
46331;DHT22;32049;52.346;4.870;2022-09-09T21:10:47;16.50;99.90
46331;DHT22;32049;52.346;4.870;2022-09-09T21:13:36;16.50;99.90
46331;DHT22;32049;52.346;4.870;2022-09-09T21:16:25;16.50;99.90
46331;DHT22;32049;52.346;4.870;2022-09-09T21:19:15;16.40;99.90
46331;DHT22;32049;52.346;4.870;2022-09-09T21:22:06;16.40;99.90
46331;DHT22;32049;52.346;4.870;2022-09-09T21:25:01;16.40;99.90
46331;DHT22;32049;52.346;4.870;2022-09-09T21:27:52;16.40;99.90
46331;DHT22;32049;52.346;4.870;2022-09-09T21:30:48;16.40;99.90
46331;DHT22;32049;52.346;4.870;2022-09-09T21:33:45;16.40;99.90
46331;DHT22;32049;52.346;4.870;2022-09-09T21:36:40;16.40;99.90
46331;DHT22;32049;52.346;4.870;2022-09-09T21:39:30;16.40;99.90
46331;DHT22;32049;52.346;4.870;2022-09-09T21:42:23;16.50;99.90
46331;DHT22;32049;52.346;4.870;2022-09-09T21:45:13;16.40;99.90
46331;DHT22;32049;52.346;4.870;2022-09-09T21:48:02;16.30;99.90
46331;DHT22;32049;52.346;4.870;2022-09-09T21:50:54;16.40;99.90
46331;DHT22;32049;52.346;4.870;2022-09-09T21:53:46;16.40;99.90
46331;DHT22;32049;52.346;4.870;2022-09-09T21:56:39;16.30;99.90
46331;DHT22;32049;52.346;4.870;2022-09-09T21:59:32;16.30;99.90
46331;DHT22;32049;52.346;4.870;2022-09-09T22:02:20;16.30;99.90
46331;DHT22;32049;52.346;4.870;2022-09-09T22:05:16;16.30;99.90
46331;DHT22;32049;52.346;4.870;2022-09-09T22:08:04;16.30;99.90
46331;DHT22;32049;52.346;4.870;2022-09-09T22:11:10;16.30;99.90
46331;DHT22;32049;52.346;4.870;2022-09-09T22:14:00;16.30;99.90
46331;DHT22;32049;52.346;4.870;2022-09-09T22:16:49;16.30;99.90
46331;DHT22;32049;52.346;4.870;2022-09-09T22:19:37;16.30;99.90
46331;DHT22;32049;52.346;4.870;2022-09-09T22:22:31;16.30;99.90
46331;DHT22;32049;52.346;4.870;2022-09-09T22:25:20;16.30;99.90
46331;DHT22;32049;52.346;4.870;2022-09-09T22:28:12;16.40;99.90
46331;DHT22;32049;52.346;4.870;2022-09-09T22:31:01;16.30;99.90
46331;DHT22;32049;52.346;4.870;2022-09-09T22:33:52;16.40;99.90
46331;DHT22;32049;52.346;4.870;2022-09-09T22:36:43;16.30;99.90
46331;DHT22;32049;52.346;4.870;2022-09-09T22:39:33;16.30;99.90
46331;DHT22;32049;52.346;4.870;2022-09-09T22:42:26;16.30;99.90
46331;DHT22;32049;52.346;4.870;2022-09-09T22:45:14;16.40;99.90
46331;DHT22;32049;52.346;4.870;2022-09-09T22:48:06;16.30;99.90
46331;DHT22;32049;52.346;4.870;2022-09-09T22:51:11;16.40;99.90
46331;DHT22;32049;52.346;4.870;2022-09-09T22:54:04;16.40;99.90
46331;DHT22;32049;52.346;4.870;2022-09-09T22:56:52;16.30;99.90
46331;DHT22;32049;52.346;4.870;2022-09-09T22:59:42;16.30;99.90
46331;DHT22;32049;52.346;4.870;2022-09-09T23:02:30;16.30;99.90
46331;DHT22;32049;52.346;4.870;2022-09-09T23:05:22;16.20;99.90
